sensor_id;sensor_type;location;lat;lon;timestamp;temperature;humidity
4596;DHT22;2310;49.978;8.742;2023-03-02T00:06:02;3.40;99.90
4596;DHT22;2310;49.978;8.742;2023-03-02T00:10:04;3.30;99.90
4596;DHT22;2310;49.978;8.742;2023-03-02T00:14:06;3.30;99.90
4596;DHT22;2310;49.978;8.742;2023-03-02T00:18:07;3.30;99.90
4596;DHT22;2310;49.978;8.742;2023-03-02T00:22:08;3.30;99.90
4596;DHT22;2310;49.978;8.742;2023-03-02T00:26:11;3.20;99.90
4596;DHT22;2310;49.978;8.742;2023-03-02T00:30:13;3.20;99.90
4596;DHT22;2310;49.978;8.742;2023-03-02T00:34:15;3.20;99.90
4596;DHT22;2310;49.978;8.742;2023-03-02T00:38:17;3.30;99.90
4596;DHT22;2310;49.978;8.742;2023-03-02T00:42:19;3.30;99.90
4596;DHT22;2310;49.978;8.742;2023-03-02T00:46:22;3.30;99.90
4596;DHT22;2310;49.978;8.742;2023-03-02T00:50:24;3.20;99.90
4596;DHT22;2310;49.978;8.742;2023-03-02T00:54:25;3.10;99.90
4596;DHT22;2310;49.978;8.742;2023-03-02T00:58:27;3.00;99.90
4596;DHT22;2310;49.978;8.742;2023-03-02T01:02:28;3.20;99.90
4596;DHT22;2310;49.978;8.742;2023-03-02T01:06:30;3.20;99.90
4596;DHT22;2310;49.978;8.742;2023-03-02T01:10:32;3.40;99.90
4596;DHT22;2310;49.978;8.742;2023-03-02T01:14:35;3.40;99.90
4596;DHT22;2310;49.978;8.742;2023-03-02T01:18:37;3.30;99.90
4596;DHT22;2310;49.978;8.742;2023-03-02T01:22:38;3.30;99.90
4596;DHT22;2310;49.978;8.742;2023-03-02T01:26:39;3.30;99.90
4596;DHT22;2310;49.978;8.742;2023-03-02T01:30:41;3.30;99.90
4596;DHT22;2310;49.978;8.742;2023-03-02T01:34:42;3.10;99.90
4596;DHT22;2310;49.978;8.742;2023-03-02T01:38:43;3.20;99.90
4596;DHT22;2310;49.978;8.742;2023-03-02T01:42:50;3.10;99.90
4596;DHT22;2310;49.978;8.742;2023-03-02T01:46:50;3.10;99.90
4596;DHT22;2310;49.978;8.742;2023-03-02T01:50:52;3.00;99.90
4596;DHT22;2310;49.978;8.742;2023-03-02T01:54:56;2.90;99.90
4596;DHT22;2310;49.978;8.742;2023-03-02T01:59:02;3.00;99.90
4596;DHT22;2310;49.978;8.742;2023-03-02T02:03:07;2.90;99.90
4596;DHT22;2310;49.978;8.742;2023-03-02T02:07:10;2.80;99.90
4596;DHT22;2310;49.978;8.742;2023-03-02T02:11:12;2.80;99.90
4596;DHT22;2310;49.978;8.742;2023-03-02T02:15:14;2.70;99.90
4596;DHT22;2310;49.978;8.742;2023-03-02T02:19:37;2.90;99.90
4596;DHT22;2310;49.978;8.742;2023-03-02T02:28:00;3.20;99.90
4596;DHT22;2310;49.978;8.742;2023-03-02T02:32:16;3.10;99.90
4596;DHT22;2310;49.978;8.742;2023-03-02T02:36:21;3.10;99.90
4596;DHT22;2310;49.978;8.742;2023-03-02T02:40:52;2.90;99.90
4596;DHT22;2310;49.978;8.742;2023-03-02T02:44:57;2.90;99.90
4596;DHT22;2310;49.978;8.742;2023-03-02T02:48:59;3.00;99.90
4596;DHT22;2310;49.978;8.742;2023-03-02T02:53:19;3.10;99.90
4596;DHT22;2310;49.978;8.742;2023-03-02T02:57:24;3.20;99.90
4596;DHT22;2310;49.978;8.742;2023-03-02T03:01:26;3.20;99.90
4596;DHT22;2310;49.978;8.742;2023-03-02T03:05:27;3.10;99.90
4596;DHT22;2310;49.978;8.742;2023-03-02T03:09:29;2.90;99.90
4596;DHT22;2310;49.978;8.742;2023-03-02T03:13:31;2.80;99.90
4596;DHT22;2310;49.978;8.742;2023-03-02T03:17:32;2.70;99.90
4596;DHT22;2310;49.978;8.742;2023-03-02T03:21:34;2.60;99.90
4596;DHT22;2310;49.978;8.742;2023-03-02T03:25:35;2.70;99.90
4596;DHT22;2310;49.978;8.742;2023-03-02T03:29:39;2.70;99.90
4596;DHT22;2310;49.978;8.742;2023-03-02T03:33:40;2.60;99.90
4596;DHT22;2310;49.978;8.742;2023-03-02T03:37:41;2.70;99.90
4596;DHT22;2310;49.978;8.742;2023-03-02T03:41:43;2.60;99.90
4596;DHT22;2310;49.978;8.742;2023-03-02T03:45:45;2.60;99.90
4596;DHT22;2310;49.978;8.742;2023-03-02T03:49:46;2.60;99.90
4596;DHT22;2310;49.978;8.742;2023-03-02T03:53:47;2.70;99.90
4596;DHT22;2310;49.978;8.742;2023-03-02T03:57:50;2.80;99.90
4596;DHT22;2310;49.978;8.742;2023-03-02T04:01:55;2.70;99.90
4596;DHT22;2310;49.978;8.742;2023-03-02T04:05:56;2.60;99.90
4596;DHT22;2310;49.978;8.742;2023-03-02T04:09:58;2.50;99.90
4596;DHT22;2310;49.978;8.742;2023-03-02T04:14:01;2.60;99.90
4596;DHT22;2310;49.978;8.742;2023-03-02T04:18:03;2.60;99.90
4596;DHT22;2310;49.978;8.742;2023-03-02T04:22:04;2.60;99.90
4596;DHT22;2310;49.978;8.742;2023-03-02T04:26:05;2.60;99.90
4596;DHT22;2310;49.978;8.742;2023-03-02T04:30:08;2.50;99.90
4596;DHT22;2310;49.978;8.742;2023-03-02T04:34:09;2.60;99.90
4596;DHT22;2310;49.978;8.742;2023-03-02T04:38:10;2.70;99.90
4596;DHT22;2310;49.978;8.742;2023-03-02T04:42:11;2.60;99.90
4596;DHT22;2310;49.978;8.742;2023-03-02T04:46:19;2.60;99.90
4596;DHT22;2310;49.978;8.742;2023-03-02T04:50:20;2.60;99.90
4596;DHT22;2310;49.978;8.742;2023-03-02T04:54:23;2.50;99.90
4596;DHT22;2310;49.978;8.742;2023-03-02T04:58:25;2.50;99.90
4596;DHT22;2310;49.978;8.742;2023-03-02T05:02:27;2.50;99.90
4596;DHT22;2310;49.978;8.742;2023-03-02T05:06:29;2.60;99.90
4596;DHT22;2310;49.978;8.742;2023-03-02T05:10:31;2.60;99.90
4596;DHT22;2310;49.978;8.742;2023-03-02T05:14:32;2.60;99.90
4596;DHT22;2310;49.978;8.742;2023-03-02T05:18:33;2.60;99.90
4596;DHT22;2310;49.978;8.742;2023-03-02T05:22:35;2.40;99.90
4596;DHT22;2310;49.978;8.742;2023-03-02T05:26:36;2.30;99.90
4596;DHT22;2310;49.978;8.742;2023-03-02T05:30:37;2.40;99.90
4596;DHT22;2310;49.978;8.742;2023-03-02T05:34:38;2.50;99.90
4596;DHT22;2310;49.978;8.742;2023-03-02T05:38:39;2.40;99.90
4596;DHT22;2310;49.978;8.742;2023-03-02T05:42:41;2.20;99.90
4596;DHT22;2310;49.978;8.742;2023-03-02T05:46:42;2.20;99.90
4596;DHT22;2310;49.978;8.742;2023-03-02T05:50:43;2.10;99.90
4596;DHT22;2310;49.978;8.742;2023-03-02T05:54:45;2.20;99.90
4596;DHT22;2310;49.978;8.742;2023-03-02T05:58:46;2.10;99.90
4596;DHT22;2310;49.978;8.742;2023-03-02T06:02:48;2.10;99.90
4596;DHT22;2310;49.978;8.742;2023-03-02T06:06:49;2.10;99.90
4596;DHT22;2310;49.978;8.742;2023-03-02T06:10:55;2.00;99.90
4596;DHT22;2310;49.978;8.742;2023-03-02T06:14:57;2.10;99.90
4596;DHT22;2310;49.978;8.742;2023-03-02T06:18:59;2.00;99.90
4596;DHT22;2310;49.978;8.742;2023-03-02T06:23:00;2.00;99.90
4596;DHT22;2310;49.978;8.742;2023-03-02T06:27:01;2.00;99.90
4596;DHT22;2310;49.978;8.742;2023-03-02T06:31:03;2.10;99.90
4596;DHT22;2310;49.978;8.742;2023-03-02T06:35:05;2.10;99.90
4596;DHT22;2310;49.978;8.742;2023-03-02T06:39:08;2.10;99.90
4596;DHT22;2310;49.978;8.742;2023-03-02T06:43:11;2.30;99.90
4596;DHT22;2310;49.978;8.742;2023-03-02T06:47:12;2.30;99.90
4596;DHT22;2310;49.978;8.742;2023-03-02T06:51:13;2.20;99.90
4596;DHT22;2310;49.978;8.742;2023-03-02T06:55:15;2.10;99.90
4596;DHT22;2310;49.978;8.742;2023-03-02T06:59:16;2.20;99.90
4596;DHT22;2310;49.978;8.742;2023-03-02T07:03:17;2.20;99.90
4596;DHT22;2310;49.978;8.742;2023-03-02T07:07:20;2.20;99.90
4596;DHT22;2310;49.978;8.742;2023-03-02T07:11:21;2.40;99.90
4596;DHT22;2310;49.978;8.742;2023-03-02T07:15:22;2.60;99.90
4596;DHT22;2310;49.978;8.742;2023-03-02T07:19:24;2.80;99.90
4596;DHT22;2310;49.978;8.742;2023-03-02T07:23:25;3.00;99.90
4596;DHT22;2310;49.978;8.742;2023-03-02T07:27:26;3.20;99.90
4596;DHT22;2310;49.978;8.742;2023-03-02T07:31:28;3.30;99.90
4596;DHT22;2310;49.978;8.742;2023-03-02T07:35:29;3.60;99.90
4596;DHT22;2310;49.978;8.742;2023-03-02T07:39:30;3.60;99.90
4596;DHT22;2310;49.978;8.742;2023-03-02T07:43:31;3.70;99.90
4596;DHT22;2310;49.978;8.742;2023-03-02T07:47:34;3.80;99.90
4596;DHT22;2310;49.978;8.742;2023-03-02T07:51:36;4.10;99.90
4596;DHT22;2310;49.978;8.742;2023-03-02T07:55:40;4.20;99.90
4596;DHT22;2310;49.978;8.742;2023-03-02T07:59:42;4.40;99.90
4596;DHT22;2310;49.978;8.742;2023-03-02T08:03:43;4.80;99.90
4596;DHT22;2310;49.978;8.742;2023-03-02T08:07:45;4.90;99.90
4596;DHT22;2310;49.978;8.742;2023-03-02T08:11:46;5.20;99.90
4596;DHT22;2310;49.978;8.742;2023-03-02T08:15:48;5.30;99.90
4596;DHT22;2310;49.978;8.742;2023-03-02T08:19:49;5.50;99.90
4596;DHT22;2310;49.978;8.742;2023-03-02T08:23:51;5.80;98.80
4596;DHT22;2310;49.978;8.742;2023-03-02T08:27:52;5.80;98.00
4596;DHT22;2310;49.978;8.742;2023-03-02T08:31:53;6.00;97.70
4596;DHT22;2310;49.978;8.742;2023-03-02T08:36:01;6.10;96.10
4596;DHT22;2310;49.978;8.742;2023-03-02T08:40:02;6.30;95.80
4596;DHT22;2310;49.978;8.742;2023-03-02T08:44:04;6.70;94.00
4596;DHT22;2310;49.978;8.742;2023-03-02T08:48:05;7.10;92.70
4596;DHT22;2310;49.978;8.742;2023-03-02T08:52:06;7.00;91.90
4596;DHT22;2310;49.978;8.742;2023-03-02T08:56:15;7.10;90.70
4596;DHT22;2310;49.978;8.742;2023-03-02T09:00:17;7.30;90.30
4596;DHT22;2310;49.978;8.742;2023-03-02T09:04:19;7.40;87.90
4596;DHT22;2310;49.978;8.742;2023-03-02T09:08:20;7.90;88.20
4596;DHT22;2310;49.978;8.742;2023-03-02T09:12:21;8.00;80.50
4596;DHT22;2310;49.978;8.742;2023-03-02T09:16:24;8.50;79.40
4596;DHT22;2310;49.978;8.742;2023-03-02T09:20:26;8.80;75.40
4596;DHT22;2310;49.978;8.742;2023-03-02T09:24:27;9.10;75.10
4596;DHT22;2310;49.978;8.742;2023-03-02T09:28:28;9.40;72.00
4596;DHT22;2310;49.978;8.742;2023-03-02T09:32:29;9.80;72.40
4596;DHT22;2310;49.978;8.742;2023-03-02T09:36:31;9.70;69.40
4596;DHT22;2310;49.978;8.742;2023-03-02T09:40:34;9.60;67.90
4596;DHT22;2310;49.978;8.742;2023-03-02T09:44:53;9.80;68.40
4596;DHT22;2310;49.978;8.742;2023-03-02T09:57:35;10.30;64.50
4596;DHT22;2310;49.978;8.742;2023-03-02T10:01:41;10.30;64.70
4596;DHT22;2310;49.978;8.742;2023-03-02T10:05:46;10.40;64.40
4596;DHT22;2310;49.978;8.742;2023-03-02T10:09:48;10.50;63.10
4596;DHT22;2310;49.978;8.742;2023-03-02T10:14:08;10.60;61.80
4596;DHT22;2310;49.978;8.742;2023-03-02T10:18:20;10.80;62.10
4596;DHT22;2310;49.978;8.742;2023-03-02T10:22:28;10.90;61.60
4596;DHT22;2310;49.978;8.742;2023-03-02T10:26:37;11.10;61.10
4596;DHT22;2310;49.978;8.742;2023-03-02T10:30:38;11.40;63.50
4596;DHT22;2310;49.978;8.742;2023-03-02T10:34:40;11.90;59.10
4596;DHT22;2310;49.978;8.742;2023-03-02T10:38:41;11.70;57.70
4596;DHT22;2310;49.978;8.742;2023-03-02T10:42:42;11.70;58.90
4596;DHT22;2310;49.978;8.742;2023-03-02T10:46:44;11.90;60.50
4596;DHT22;2310;49.978;8.742;2023-03-02T10:50:51;11.90;58.50
4596;DHT22;2310;49.978;8.742;2023-03-02T10:55:03;12.00;58.50
4596;DHT22;2310;49.978;8.742;2023-03-02T11:03:29;12.20;57.00
4596;DHT22;2310;49.978;8.742;2023-03-02T11:07:30;12.50;57.00
4596;DHT22;2310;49.978;8.742;2023-03-02T11:11:32;12.50;56.50
4596;DHT22;2310;49.978;8.742;2023-03-02T11:15:39;12.80;56.40
4596;DHT22;2310;49.978;8.742;2023-03-02T11:19:40;12.90;54.70
4596;DHT22;2310;49.978;8.742;2023-03-02T11:28:11;13.00;55.40
4596;DHT22;2310;49.978;8.742;2023-03-02T11:36:23;13.00;55.70
4596;DHT22;2310;49.978;8.742;2023-03-02T11:40:35;13.10;54.00
4596;DHT22;2310;49.978;8.742;2023-03-02T11:44:36;13.30;56.40
4596;DHT22;2310;49.978;8.742;2023-03-02T11:48:42;13.50;55.10
4596;DHT22;2310;49.978;8.742;2023-03-02T11:52:50;13.60;55.40
4596;DHT22;2310;49.978;8.742;2023-03-02T11:56:52;14.00;53.60
4596;DHT22;2310;49.978;8.742;2023-03-02T12:00:53;13.50;54.60
4596;DHT22;2310;49.978;8.742;2023-03-02T12:05:04;13.50;54.30
4596;DHT22;2310;49.978;8.742;2023-03-02T12:09:26;13.50;54.90
4596;DHT22;2310;49.978;8.742;2023-03-02T12:17:34;14.20;53.70
4596;DHT22;2310;49.978;8.742;2023-03-02T12:21:55;14.30;53.50
4596;DHT22;2310;49.978;8.742;2023-03-02T12:26:21;14.50;54.80
4596;DHT22;2310;49.978;8.742;2023-03-02T12:34:44;15.90;73.80
4596;DHT22;2310;49.978;8.742;2023-03-02T12:38:51;15.60;60.70
4596;DHT22;2310;49.978;8.742;2023-03-02T12:47:13;16.10;53.80
4596;DHT22;2310;49.978;8.742;2023-03-02T12:51:22;16.10;53.40
4596;DHT22;2310;49.978;8.742;2023-03-02T12:55:24;16.40;51.20
4596;DHT22;2310;49.978;8.742;2023-03-02T12:59:27;16.10;49.30
4596;DHT22;2310;49.978;8.742;2023-03-02T13:03:30;15.80;48.10
4596;DHT22;2310;49.978;8.742;2023-03-02T13:07:43;15.00;48.60
4596;DHT22;2310;49.978;8.742;2023-03-02T13:11:47;15.10;49.70
4596;DHT22;2310;49.978;8.742;2023-03-02T13:15:55;15.20;48.90
4596;DHT22;2310;49.978;8.742;2023-03-02T13:19:59;15.20;49.30
4596;DHT22;2310;49.978;8.742;2023-03-02T13:24:01;15.10;49.80
4596;DHT22;2310;49.978;8.742;2023-03-02T13:28:03;14.80;49.40
4596;DHT22;2310;49.978;8.742;2023-03-02T13:32:16;15.00;50.00
4596;DHT22;2310;49.978;8.742;2023-03-02T13:36:19;14.80;48.70
4596;DHT22;2310;49.978;8.742;2023-03-02T13:44:33;14.70;50.10
4596;DHT22;2310;49.978;8.742;2023-03-02T13:48:34;14.80;50.10
4596;DHT22;2310;49.978;8.742;2023-03-02T13:52:35;14.60;48.60
4596;DHT22;2310;49.978;8.742;2023-03-02T13:56:38;14.80;49.90
4596;DHT22;2310;49.978;8.742;2023-03-02T14:00:44;14.90;50.00
4596;DHT22;2310;49.978;8.742;2023-03-02T14:04:45;15.00;49.40
4596;DHT22;2310;49.978;8.742;2023-03-02T14:08:47;15.30;49.70
4596;DHT22;2310;49.978;8.742;2023-03-02T14:12:56;15.20;48.80
4596;DHT22;2310;49.978;8.742;2023-03-02T14:16:58;14.80;49.90
4596;DHT22;2310;49.978;8.742;2023-03-02T14:20:59;15.30;60.20
4596;DHT22;2310;49.978;8.742;2023-03-02T14:25:00;15.20;53.70
4596;DHT22;2310;49.978;8.742;2023-03-02T14:29:08;14.90;52.30
4596;DHT22;2310;49.978;8.742;2023-03-02T14:33:15;14.90;52.40
4596;DHT22;2310;49.978;8.742;2023-03-02T14:37:19;14.70;52.00
4596;DHT22;2310;49.978;8.742;2023-03-02T14:41:22;14.40;52.10
4596;DHT22;2310;49.978;8.742;2023-03-02T14:45:24;14.60;53.50
4596;DHT22;2310;49.978;8.742;2023-03-02T14:49:25;14.70;52.20
4596;DHT22;2310;49.978;8.742;2023-03-02T14:53:28;14.70;52.00
4596;DHT22;2310;49.978;8.742;2023-03-02T14:57:34;14.60;52.20
4596;DHT22;2310;49.978;8.742;2023-03-02T15:01:36;14.30;51.30
4596;DHT22;2310;49.978;8.742;2023-03-02T15:05:37;14.20;52.50
4596;DHT22;2310;49.978;8.742;2023-03-02T15:09:40;13.90;51.70
4596;DHT22;2310;49.978;8.742;2023-03-02T15:13:43;13.70;52.10
4596;DHT22;2310;49.978;8.742;2023-03-02T15:17:46;13.80;52.50
4596;DHT22;2310;49.978;8.742;2023-03-02T15:21:47;13.70;52.80
4596;DHT22;2310;49.978;8.742;2023-03-02T15:25:49;13.80;52.60
4596;DHT22;2310;49.978;8.742;2023-03-02T15:29:50;13.80;51.80
4596;DHT22;2310;49.978;8.742;2023-03-02T15:33:52;13.70;52.40
4596;DHT22;2310;49.978;8.742;2023-03-02T15:37:55;13.80;52.60
4596;DHT22;2310;49.978;8.742;2023-03-02T15:41:58;13.80;52.40
4596;DHT22;2310;49.978;8.742;2023-03-02T15:45:59;13.40;52.10
4596;DHT22;2310;49.978;8.742;2023-03-02T15:50:03;13.40;52.30
4596;DHT22;2310;49.978;8.742;2023-03-02T15:54:04;13.30;53.30
4596;DHT22;2310;49.978;8.742;2023-03-02T15:58:07;13.40;52.60
4596;DHT22;2310;49.978;8.742;2023-03-02T16:02:09;13.30;52.60
4596;DHT22;2310;49.978;8.742;2023-03-02T16:06:10;13.10;53.50
4596;DHT22;2310;49.978;8.742;2023-03-02T16:10:11;13.10;53.60
4596;DHT22;2310;49.978;8.742;2023-03-02T16:14:15;13.10;53.80
4596;DHT22;2310;49.978;8.742;2023-03-02T16:18:16;12.80;53.60
4596;DHT22;2310;49.978;8.742;2023-03-02T16:22:17;12.70;53.90
4596;DHT22;2310;49.978;8.742;2023-03-02T16:26:20;12.50;54.80
4596;DHT22;2310;49.978;8.742;2023-03-02T16:30:21;12.50;55.50
4596;DHT22;2310;49.978;8.742;2023-03-02T16:34:24;12.60;55.10
4596;DHT22;2310;49.978;8.742;2023-03-02T16:38:25;12.60;56.00
4596;DHT22;2310;49.978;8.742;2023-03-02T16:42:27;12.60;55.40
4596;DHT22;2310;49.978;8.742;2023-03-02T16:46:32;12.50;55.00
4596;DHT22;2310;49.978;8.742;2023-03-02T16:50:35;12.40;54.10
4596;DHT22;2310;49.978;8.742;2023-03-02T16:54:37;12.20;53.10
4596;DHT22;2310;49.978;8.742;2023-03-02T16:58:39;12.00;53.30
4596;DHT22;2310;49.978;8.742;2023-03-02T17:02:41;11.80;53.60
4596;DHT22;2310;49.978;8.742;2023-03-02T17:06:44;11.80;53.20
4596;DHT22;2310;49.978;8.742;2023-03-02T17:10:48;11.70;53.20
4596;DHT22;2310;49.978;8.742;2023-03-02T17:14:49;11.60;53.40
4596;DHT22;2310;49.978;8.742;2023-03-02T17:18:50;11.30;53.60
4596;DHT22;2310;49.978;8.742;2023-03-02T17:22:52;11.00;53.70
4596;DHT22;2310;49.978;8.742;2023-03-02T17:26:53;10.90;53.90
4596;DHT22;2310;49.978;8.742;2023-03-02T17:30:55;10.90;57.60
4596;DHT22;2310;49.978;8.742;2023-03-02T17:34:56;10.90;57.10
4596;DHT22;2310;49.978;8.742;2023-03-02T17:38:57;10.70;56.80
4596;DHT22;2310;49.978;8.742;2023-03-02T17:42:58;10.60;57.00
4596;DHT22;2310;49.978;8.742;2023-03-02T17:47:00;10.50;57.30
4596;DHT22;2310;49.978;8.742;2023-03-02T17:51:04;10.50;57.50
4596;DHT22;2310;49.978;8.742;2023-03-02T17:55:05;10.60;57.60
4596;DHT22;2310;49.978;8.742;2023-03-02T17:59:07;10.50;56.90
4596;DHT22;2310;49.978;8.742;2023-03-02T18:03:08;10.40;57.10
4596;DHT22;2310;49.978;8.742;2023-03-02T18:07:09;10.30;57.30
4596;DHT22;2310;49.978;8.742;2023-03-02T18:11:10;10.20;57.70
4596;DHT22;2310;49.978;8.742;2023-03-02T18:15:11;10.20;56.80
4596;DHT22;2310;49.978;8.742;2023-03-02T18:19:13;10.00;57.20
4596;DHT22;2310;49.978;8.742;2023-03-02T18:23:14;10.00;56.60
4596;DHT22;2310;49.978;8.742;2023-03-02T18:27:15;9.90;56.30
4596;DHT22;2310;49.978;8.742;2023-03-02T18:31:17;9.80;57.10
4596;DHT22;2310;49.978;8.742;2023-03-02T18:35:19;9.70;56.20
4596;DHT22;2310;49.978;8.742;2023-03-02T18:39:20;9.60;55.00
4596;DHT22;2310;49.978;8.742;2023-03-02T18:43:21;9.50;54.90
4596;DHT22;2310;49.978;8.742;2023-03-02T18:47:23;9.40;54.40
4596;DHT22;2310;49.978;8.742;2023-03-02T18:51:24;9.50;54.40
4596;DHT22;2310;49.978;8.742;2023-03-02T18:55:26;9.40;53.30
4596;DHT22;2310;49.978;8.742;2023-03-02T18:59:28;9.20;53.40
4596;DHT22;2310;49.978;8.742;2023-03-02T19:03:30;9.30;53.10
4596;DHT22;2310;49.978;8.742;2023-03-02T19:07:31;9.30;52.60
4596;DHT22;2310;49.978;8.742;2023-03-02T19:11:33;9.30;52.60
4596;DHT22;2310;49.978;8.742;2023-03-02T19:15:34;9.20;52.20
4596;DHT22;2310;49.978;8.742;2023-03-02T19:19:37;9.10;51.40
4596;DHT22;2310;49.978;8.742;2023-03-02T19:23:38;9.00;51.70
4596;DHT22;2310;49.978;8.742;2023-03-02T19:27:41;8.80;51.70
4596;DHT22;2310;49.978;8.742;2023-03-02T19:31:42;8.80;52.00
4596;DHT22;2310;49.978;8.742;2023-03-02T19:35:44;8.80;52.20
4596;DHT22;2310;49.978;8.742;2023-03-02T19:39:45;8.70;51.10
4596;DHT22;2310;49.978;8.742;2023-03-02T19:43:47;8.50;51.20
4596;DHT22;2310;49.978;8.742;2023-03-02T19:47:49;8.60;51.50
4596;DHT22;2310;49.978;8.742;2023-03-02T19:51:50;8.50;51.20
4596;DHT22;2310;49.978;8.742;2023-03-02T19:55:51;8.40;51.30
4596;DHT22;2310;49.978;8.742;2023-03-02T19:59:52;8.30;50.80
4596;DHT22;2310;49.978;8.742;2023-03-02T20:03:55;8.30;50.30
4596;DHT22;2310;49.978;8.742;2023-03-02T20:07:56;8.30;49.90
4596;DHT22;2310;49.978;8.742;2023-03-02T20:11:57;8.20;49.20
4596;DHT22;2310;49.978;8.742;2023-03-02T20:16:01;8.00;48.80
4596;DHT22;2310;49.978;8.742;2023-03-02T20:20:03;8.00;48.80
4596;DHT22;2310;49.978;8.742;2023-03-02T20:24:05;8.00;49.30
4596;DHT22;2310;49.978;8.742;2023-03-02T20:28:07;7.90;48.30
4596;DHT22;2310;49.978;8.742;2023-03-02T20:32:11;7.80;48.10
4596;DHT22;2310;49.978;8.742;2023-03-02T20:36:16;7.70;47.90
4596;DHT22;2310;49.978;8.742;2023-03-02T20:40:18;7.70;48.00
4596;DHT22;2310;49.978;8.742;2023-03-02T20:44:20;7.60;48.20
4596;DHT22;2310;49.978;8.742;2023-03-02T20:48:22;7.50;48.30
4596;DHT22;2310;49.978;8.742;2023-03-02T20:52:24;7.60;49.40
4596;DHT22;2310;49.978;8.742;2023-03-02T20:56:26;7.50;48.80
4596;DHT22;2310;49.978;8.742;2023-03-02T21:00:28;7.40;49.60
4596;DHT22;2310;49.978;8.742;2023-03-02T21:04:31;7.40;49.90
4596;DHT22;2310;49.978;8.742;2023-03-02T21:08:34;7.40;50.40
4596;DHT22;2310;49.978;8.742;2023-03-02T21:12:37;7.30;50.70
4596;DHT22;2310;49.978;8.742;2023-03-02T21:16:40;7.30;50.80
4596;DHT22;2310;49.978;8.742;2023-03-02T21:20:42;7.40;51.50
4596;DHT22;2310;49.978;8.742;2023-03-02T21:24:43;7.40;51.00
4596;DHT22;2310;49.978;8.742;2023-03-02T21:28:44;7.30;51.40
4596;DHT22;2310;49.978;8.742;2023-03-02T21:32:46;7.30;51.60
4596;DHT22;2310;49.978;8.742;2023-03-02T21:36:49;7.20;52.10
4596;DHT22;2310;49.978;8.742;2023-03-02T21:40:52;7.20;52.10
4596;DHT22;2310;49.978;8.742;2023-03-02T21:44:53;7.10;52.60
4596;DHT22;2310;49.978;8.742;2023-03-02T21:48:55;7.00;53.50
4596;DHT22;2310;49.978;8.742;2023-03-02T21:52:56;7.00;54.20
4596;DHT22;2310;49.978;8.742;2023-03-02T21:56:59;6.90;54.70
4596;DHT22;2310;49.978;8.742;2023-03-02T22:01:00;6.80;55.20
4596;DHT22;2310;49.978;8.742;2023-03-02T22:05:01;6.80;56.00
4596;DHT22;2310;49.978;8.742;2023-03-02T22:09:04;6.80;57.10
4596;DHT22;2310;49.978;8.742;2023-03-02T22:13:27;6.60;58.50
4596;DHT22;2310;49.978;8.742;2023-03-02T22:17:28;6.60;59.60
4596;DHT22;2310;49.978;8.742;2023-03-02T22:21:35;6.60;61.30
4596;DHT22;2310;49.978;8.742;2023-03-02T22:25:37;6.40;63.70
4596;DHT22;2310;49.978;8.742;2023-03-02T22:29:41;6.50;64.50
4596;DHT22;2310;49.978;8.742;2023-03-02T22:33:43;6.50;66.50
4596;DHT22;2310;49.978;8.742;2023-03-02T22:37:44;6.60;68.10
4596;DHT22;2310;49.978;8.742;2023-03-02T22:41:46;6.60;68.20
4596;DHT22;2310;49.978;8.742;2023-03-02T22:45:47;6.50;71.60
4596;DHT22;2310;49.978;8.742;2023-03-02T22:49:57;6.50;72.00
4596;DHT22;2310;49.978;8.742;2023-03-02T22:53:59;6.40;74.20
4596;DHT22;2310;49.978;8.742;2023-03-02T23:02:43;6.10;80.80
4596;DHT22;2310;49.978;8.742;2023-03-02T23:06:53;6.00;86.50
4596;DHT22;2310;49.978;8.742;2023-03-02T23:10:56;6.00;90.30
4596;DHT22;2310;49.978;8.742;2023-03-02T23:14:58;5.80;93.40
4596;DHT22;2310;49.978;8.742;2023-03-02T23:19:00;5.90;94.00
4596;DHT22;2310;49.978;8.742;2023-03-02T23:23:01;5.90;95.20
4596;DHT22;2310;49.978;8.742;2023-03-02T23:27:02;6.00;96.20
4596;DHT22;2310;49.978;8.742;2023-03-02T23:31:04;5.80;97.20
4596;DHT22;2310;49.978;8.742;2023-03-02T23:35:05;5.80;98.00
4596;DHT22;2310;49.978;8.742;2023-03-02T23:39:07;5.70;99.20
4596;DHT22;2310;49.978;8.742;2023-03-02T23:43:09;5.70;99.90
4596;DHT22;2310;49.978;8.742;2023-03-02T23:47:10;5.80;99.90
4596;DHT22;2310;49.978;8.742;2023-03-02T23:51:12;5.70;99.90
4596;DHT22;2310;49.978;8.742;2023-03-02T23:55:13;5.60;99.90
4596;DHT22;2310;49.978;8.742;2023-03-02T23:59:14;5.60;99.90
